Time;durP1;ratioP1;P1;durP2;ratioP2;P2;SDS_P1;SDS_P2;PMS_P1;PMS_P2;Temp;Humidity;BMP_temperature;BMP_pressure;BME280_temperature;BME280_humidity;BME280_pressure;Samples;Min_cycle;Max_cycle;Signal;HPM_P1;HPM_P2
2024/01/30 00:00:11;;;;;;;31.60;18.40;;;6.70;99.90;;;;;;5006503;28;20045;-76
2024/01/30 00:02:37;;;;;;;26.13;18.80;;;6.70;99.90;;;;;;4999727;28;20121;-74
2024/01/30 00:05:03;;;;;;;28.33;17.70;;;6.70;99.90;;;;;;5000634;28;20042;-76
2024/01/30 00:07:29;;;;;;;29.70;18.50;;;6.70;99.90;;;;;;5006961;28;20042;-76
2024/01/30 00:09:54;;;;;;;28.80;18.05;;;6.70;99.90;;;;;;5010788;28;20045;-76
2024/01/30 00:12:20;;;;;;;28.17;18.10;;;6.70;99.90;;;;;;5011255;28;20495;-76
2024/01/30 00:14:46;;;;;;;28.23;18.08;;;6.70;99.90;;;;;;5008757;28;20045;-76
2024/01/30 00:17:11;;;;;;;30.17;18.58;;;6.70;99.90;;;;;;5010413;28;20034;-76
2024/01/30 00:19:37;;;;;;;31.10;18.45;;;6.60;99.90;;;;;;5002930;28;20042;-76
2024/01/30 00:22:02;;;;;;;25.92;17.55;;;6.60;99.90;;;;;;5007935;28;20070;-76
2024/01/30 00:24:28;;;;;;;30.10;18.80;;;6.60;99.90;;;;;;4999581;28;20130;-76
2024/01/30 00:26:53;;;;;;;26.85;17.70;;;6.60;99.90;;;;;;5005304;28;20046;-76
2024/01/30 00:29:19;;;;;;;29.80;17.23;;;6.60;99.90;;;;;;5001942;28;20060;-76
2024/01/30 00:31:48;;;;;;;26.75;18.25;;;6.60;99.90;;;;;;5010380;28;20145;-76
2024/01/30 00:34:13;;;;;;;26.60;17.40;;;6.60;99.90;;;;;;5003624;28;20050;-76
2024/01/30 00:36:39;;;;;;;31.58;19.45;;;6.50;99.90;;;;;;5005181;28;20380;-77
2024/01/30 00:39:07;;;;;;;28.67;18.52;;;6.60;99.90;;;;;;5003218;28;20088;-76
2024/01/30 00:41:32;;;;;;;27.48;18.35;;;6.60;99.90;;;;;;5001887;28;20059;-75
2024/01/30 00:43:58;;;;;;;30.98;19.15;;;6.60;99.90;;;;;;4998397;28;20152;-76
2024/01/30 00:46:23;;;;;;;29.48;18.27;;;6.60;99.90;;;;;;5006685;28;20046;-77
2024/01/30 00:48:49;;;;;;;30.80;18.98;;;6.60;99.90;;;;;;5009396;28;20088;-76
2024/01/30 00:51:14;;;;;;;27.02;18.20;;;6.60;99.90;;;;;;5003833;28;20104;-75
2024/01/30 00:53:41;;;;;;;26.50;17.60;;;6.60;99.90;;;;;;5008182;28;20080;-76
2024/01/30 00:56:07;;;;;;;28.27;17.40;;;7.60;99.90;;;;;;5010997;28;20126;-77
2024/01/30 00:58:33;;;;;;;31.65;18.95;;;6.60;99.90;;;;;;5006882;28;20046;-76
2024/01/30 01:00:58;;;;;;;29.85;17.85;;;6.50;99.90;;;;;;5008981;28;20042;-76
2024/01/30 01:03:24;;;;;;;26.80;17.40;;;6.50;99.90;;;;;;5006370;28;20030;-76
2024/01/30 01:05:50;;;;;;;27.02;17.23;;;6.60;99.90;;;;;;4999353;28;20066;-76
2024/01/30 01:08:15;;;;;;;24.63;16.70;;;6.50;99.90;;;;;;5010376;28;20038;-76
2024/01/30 01:10:41;;;;;;;26.92;17.65;;;6.50;99.90;;;;;;4999399;28;20034;-76
2024/01/30 01:13:06;;;;;;;28.15;17.75;;;6.50;99.90;;;;;;5008108;28;20121;-76
2024/01/30 01:15:32;;;;;;;27.88;16.83;;;6.50;99.90;;;;;;5005733;28;20065;-76
2024/01/30 01:17:58;;;;;;;27.20;17.00;;;6.50;99.90;;;;;;5005188;28;20046;-76
2024/01/30 01:20:23;;;;;;;25.23;16.23;;;6.60;99.90;;;;;;5007892;28;20125;-76
2024/01/30 01:22:49;;;;;;;29.95;17.15;;;6.50;99.90;;;;;;5010115;28;20046;-76
2024/01/30 01:25:15;;;;;;;28.63;16.73;;;6.60;99.90;;;;;;5005511;28;20399;-76
2024/01/30 01:27:42;;;;;;;22.23;15.55;;;6.60;99.90;;;;;;5011587;28;20065;-76
2024/01/30 01:30:09;;;;;;;27.75;16.83;;;6.60;99.90;;;;;;5011670;28;20525;-76
2024/01/30 01:32:36;;;;;;;24.00;15.43;;;6.60;99.90;;;;;;5015004;28;20088;-76
2024/01/30 01:35:02;;;;;;;25.48;16.08;;;6.60;99.90;;;;;;5010691;28;20045;-77
2024/01/30 01:37:27;;;;;;;23.48;15.85;;;6.60;99.90;;;;;;5009824;28;20060;-76
2024/01/30 01:39:53;;;;;;;24.25;16.52;;;6.70;99.90;;;;;;5006994;28;20034;-76
2024/01/30 01:42:19;;;;;;;22.98;15.52;;;6.60;99.90;;;;;;5006437;28;20108;-76
2024/01/30 01:44:44;;;;;;;24.50;15.45;;;6.60;99.90;;;;;;5012630;28;20499;-76
2024/01/30 01:47:10;;;;;;;23.13;15.98;;;6.60;99.90;;;;;;5012301;28;20038;-73
2024/01/30 01:49:36;;;;;;;24.50;15.80;;;6.60;99.90;;;;;;5007573;28;20050;-77
2024/01/30 01:52:01;;;;;;;25.48;15.95;;;6.70;99.90;;;;;;5010091;28;20042;-76
2024/01/30 01:54:29;;;;;;;23.80;15.93;;;6.70;99.90;;;;;;5010921;28;20042;-76
2024/01/30 01:56:54;;;;;;;24.35;15.18;;;6.70;99.90;;;;;;5012178;28;20074;-76
2024/01/30 01:59:21;;;;;;;23.10;15.50;;;6.70;99.90;;;;;;5006291;28;20054;-76
2024/01/30 02:01:49;;;;;;;23.90;16.13;;;6.70;99.90;;;;;;5012339;28;20057;-76
2024/01/30 02:04:15;;;;;;;27.90;16.02;;;6.70;99.90;;;;;;5001852;28;20074;-76
2024/01/30 02:06:41;;;;;;;21.92;14.30;;;6.70;99.90;;;;;;5000576;28;20073;-73
2024/01/30 02:09:07;;;;;;;22.88;15.88;;;6.70;99.90;;;;;;5001724;28;20077;-75
2024/01/30 02:11:32;;;;;;;23.63;15.18;;;6.70;99.90;;;;;;5007324;28;20049;-76
2024/01/30 02:14:03;;;;;;;26.30;15.98;;;6.60;99.90;;;;;;4997147;28;20560;-77
2024/01/30 02:16:29;;;;;;;22.95;15.52;;;6.70;99.90;;;;;;5009414;28;20042;-76
2024/01/30 02:18:55;;;;;;;24.63;15.55;;;6.70;99.90;;;;;;4970114;28;1061801;-76
2024/01/30 02:21:21;;;;;;;24.48;15.52;;;6.70;99.90;;;;;;5009609;28;20559;-76
2024/01/30 02:23:52;;;;;;;21.13;15.00;;;6.60;99.90;;;;;;5005490;28;20041;-76
2024/01/30 02:26:17;;;;;;;25.48;14.65;;;6.70;99.90;;;;;;5004313;28;20045;-76
2024/01/30 02:28:43;;;;;;;23.25;14.82;;;6.70;99.90;;;;;;5012600;28;20037;-76
2024/01/30 02:31:08;;;;;;;23.55;14.65;;;6.70;99.90;;;;;;5008363;28;20455;-76
2024/01/30 02:33:34;;;;;;;23.95;16.08;;;6.60;99.90;;;;;;5008374;28;20113;-76
2024/01/30 02:36:00;;;;;;;23.30;14.95;;;6.60;99.90;;;;;;5013465;28;20039;-76
2024/01/30 02:38:26;;;;;;;24.65;16.15;;;6.60;99.90;;;;;;5007793;28;20503;-76
2024/01/30 02:40:52;;;;;;;25.75;14.90;;;6.60;99.90;;;;;;5008835;28;20038;-76
2024/01/30 02:43:18;;;;;;;23.92;15.50;;;6.60;99.90;;;;;;5001869;28;20104;-73
2024/01/30 02:45:43;;;;;;;23.90;15.27;;;6.60;99.90;;;;;;5008288;28;20104;-76
2024/01/30 02:48:09;;;;;;;22.05;14.75;;;6.60;99.90;;;;;;5012353;28;20042;-76
2024/01/30 02:50:35;;;;;;;26.70;14.82;;;6.50;99.90;;;;;;5007696;28;20046;-77
2024/01/30 02:53:00;;;;;;;23.00;14.95;;;6.10;99.90;;;;;;5006021;28;20038;-76
2024/01/30 02:55:26;;;;;;;23.05;15.52;;;6.50;99.90;;;;;;5006984;28;20052;-75
2024/01/30 02:57:51;;;;;;;25.25;15.38;;;6.50;99.90;;;;;;5012508;28;20038;-76
2024/01/30 03:00:18;;;;;;;29.10;16.13;;;6.50;99.90;;;;;;5001326;28;20049;-76
2024/01/30 03:02:45;;;;;;;21.98;14.80;;;6.50;99.90;;;;;;5005249;28;20045;-76
2024/01/30 03:05:10;;;;;;;22.65;14.95;;;6.50;99.90;;;;;;5010719;28;20399;-77
2024/01/30 03:07:36;;;;;;;28.00;15.50;;;6.50;99.90;;;;;;5011909;28;20041;-76
2024/01/30 03:10:01;;;;;;;23.02;15.35;;;6.50;99.90;;;;;;5011450;28;20510;-76
2024/01/30 03:12:27;;;;;;;25.60;15.57;;;6.50;99.90;;;;;;5009394;28;20104;-77
2024/01/30 03:14:52;;;;;;;24.63;15.40;;;6.50;99.90;;;;;;5002047;28;20124;-75
2024/01/30 03:17:18;;;;;;;22.25;14.73;;;6.50;99.90;;;;;;5012431;28;20072;-77
2024/01/30 03:19:43;;;;;;;27.00;16.38;;;6.50;99.90;;;;;;5006661;28;20092;-76
2024/01/30 03:22:09;;;;;;;28.50;15.50;;;6.50;99.90;;;;;;5011992;28;20387;-76
2024/01/30 03:24:35;;;;;;;23.88;15.27;;;6.50;99.90;;;;;;5010107;28;20038;-74
2024/01/30 03:27:01;;;;;;;24.25;16.00;;;6.50;99.90;;;;;;5006732;28;20042;-76
2024/01/30 03:29:26;;;;;;;24.65;16.35;;;6.50;99.90;;;;;;5002717;28;20045;-77
2024/01/30 03:31:52;;;;;;;24.13;15.40;;;6.50;99.90;;;;;;5004507;28;20042;-76
2024/01/30 03:34:17;;;;;;;25.15;15.63;;;6.50;99.90;;;;;;5010437;28;20065;-76
2024/01/30 03:36:43;;;;;;;21.98;15.55;;;6.50;99.90;;;;;;5011413;28;20037;-76
2024/01/30 03:39:08;;;;;;;27.05;15.65;;;6.50;99.90;;;;;;5005617;28;20072;-77
2024/01/30 03:41:34;;;;;;;22.70;15.48;;;6.50;99.90;;;;;;5009727;28;20045;-76
2024/01/30 03:43:59;;;;;;;22.52;14.68;;;6.50;99.90;;;;;;4995965;28;20065;-77
2024/01/30 03:46:25;;;;;;;21.15;14.90;;;6.50;99.90;;;;;;5004215;28;20041;-77
2024/01/30 03:48:51;;;;;;;23.25;15.70;;;6.50;99.90;;;;;;5006465;28;20466;-76
2024/01/30 03:51:16;;;;;;;23.02;15.07;;;6.50;99.90;;;;;;4999123;28;20042;-77
2024/01/30 03:53:43;;;;;;;19.25;13.63;;;6.60;99.90;;;;;;5007033;28;20038;-75
2024/01/30 03:56:09;;;;;;;24.17;14.82;;;6.60;99.90;;;;;;5000941;28;20038;-77
2024/01/30 03:58:35;;;;;;;27.50;15.65;;;6.60;99.90;;;;;;5009200;28;20056;-77
2024/01/30 04:01:00;;;;;;;20.40;14.50;;;6.70;99.90;;;;;;5008039;28;20046;-76
2024/01/30 04:03:26;;;;;;;23.40;14.23;;;6.70;99.90;;;;;;5009451;28;20129;-77
2024/01/30 04:05:52;;;;;;;20.92;14.68;;;6.70;99.90;;;;;;5007491;28;20123;-77
2024/01/30 04:08:18;;;;;;;23.75;15.70;;;6.70;99.90;;;;;;5009914;28;20069;-77
2024/01/30 04:10:43;;;;;;;23.20;14.52;;;6.70;99.90;;;;;;5010098;28;20553;-77
2024/01/30 04:13:09;;;;;;;22.02;13.65;;;6.80;99.90;;;;;;5011138;28;20041;-76
2024/01/30 04:15:35;;;;;;;21.40;13.98;;;6.80;99.90;;;;;;5007412;28;20495;-76
2024/01/30 04:18:00;;;;;;;22.40;14.02;;;6.80;99.90;;;;;;5010466;28;20038;-76
2024/01/30 04:20:26;;;;;;;21.42;14.27;;;6.90;99.90;;;;;;5010922;28;20050;-76
2024/01/30 04:22:51;;;;;;;23.40;14.05;;;6.90;99.90;;;;;;5006343;28;20048;-76
2024/01/30 04:25:17;;;;;;;20.63;14.32;;;6.90;99.90;;;;;;5005334;28;20049;-76
2024/01/30 04:27:42;;;;;;;20.92;13.77;;;6.90;99.90;;;;;;5008448;28;20045;-75
2024/01/30 04:30:09;;;;;;;22.85;14.30;;;6.90;99.90;;;;;;5007996;28;20040;-76
2024/01/30 04:32:36;;;;;;;23.80;13.77;;;6.90;99.90;;;;;;5011351;28;20045;-76
2024/01/30 04:35:01;;;;;;;23.73;15.02;;;6.90;99.90;;;;;;5011171;28;20041;-76
2024/01/30 04:37:27;;;;;;;22.88;14.90;;;6.90;99.90;;;;;;5008614;28;20049;-75
2024/01/30 04:39:53;;;;;;;20.40;13.55;;;6.90;99.90;;;;;;5006674;28;20077;-76
2024/01/30 04:42:18;;;;;;;25.10;13.88;;;6.90;99.90;;;;;;5009194;28;20046;-76
2024/01/30 04:44:44;;;;;;;26.88;14.15;;;6.90;99.90;;;;;;5010754;28;20495;-76
2024/01/30 04:47:11;;;;;;;23.85;14.57;;;6.90;99.90;;;;;;5004673;28;20565;-76
2024/01/30 04:49:40;;;;;;;22.30;13.93;;;7.00;99.90;;;;;;5009341;28;20053;-77
2024/01/30 04:52:07;;;;;;;20.88;14.20;;;7.00;99.90;;;;;;5009010;28;20109;-77
2024/01/30 04:54:33;;;;;;;20.70;14.20;;;7.00;99.90;;;;;;5008421;28;20056;-76
2024/01/30 04:56:58;;;;;;;19.20;13.10;;;7.00;99.90;;;;;;5006986;28;20049;-77
2024/01/30 04:59:24;;;;;;;23.25;14.00;;;7.00;99.90;;;;;;5010664;28;20040;-76
2024/01/30 05:01:50;;;;;;;20.33;12.95;;;7.00;99.90;;;;;;5014775;28;20523;-76
2024/01/30 05:04:15;;;;;;;19.88;13.27;;;7.00;99.90;;;;;;5009370;28;20043;-76
2024/01/30 05:06:41;;;;;;;20.75;13.35;;;7.10;99.90;;;;;;5005632;28;20038;-73
2024/01/30 05:09:07;;;;;;;19.40;13.43;;;7.10;99.90;;;;;;5011074;28;20030;-76
2024/01/30 05:11:38;;;;;;;23.75;14.43;;;7.10;99.90;;;;;;5005654;28;20451;-76
2024/01/30 05:14:03;;;;;;;21.95;14.23;;;7.10;99.90;;;;;;5013265;28;20050;-77
2024/01/30 05:16:29;;;;;;;22.13;13.02;;;7.20;99.90;;;;;;5005293;28;20376;-76
2024/01/30 05:18:54;;;;;;;21.38;13.68;;;7.20;99.90;;;;;;5005003;28;20085;-76
2024/01/30 05:21:20;;;;;;;22.20;13.63;;;7.20;99.90;;;;;;5012701;28;20046;-75
2024/01/30 05:23:46;;;;;;;21.45;13.82;;;7.20;99.90;;;;;;5010299;28;20033;-76
2024/01/30 05:26:11;;;;;;;20.65;13.02;;;7.20;99.90;;;;;;5008724;28;20033;-76
2024/01/30 05:28:37;;;;;;;23.48;13.98;;;7.20;99.90;;;;;;5013333;28;20399;-76
2024/01/30 05:31:03;;;;;;;20.25;13.50;;;7.20;99.90;;;;;;5012676;28;20120;-76
2024/01/30 05:33:28;;;;;;;25.85;13.15;;;7.20;99.90;;;;;;5014137;28;20042;-75
2024/01/30 05:35:54;;;;;;;21.30;12.93;;;7.20;99.90;;;;;;5012776;28;20046;-77
2024/01/30 05:38:20;;;;;;;20.50;13.30;;;7.20;99.90;;;;;;5008872;28;20398;-76
2024/01/30 05:40:45;;;;;;;20.80;13.23;;;7.30;99.90;;;;;;5011821;28;20089;-76
2024/01/30 05:43:11;;;;;;;21.33;13.85;;;7.30;99.90;;;;;;5009562;28;20034;-76
2024/01/30 05:45:37;;;;;;;20.25;13.15;;;7.30;99.90;;;;;;5012672;28;20397;-76
2024/01/30 05:48:03;;;;;;;21.35;13.38;;;7.30;99.90;;;;;;5012928;28;20045;-76
2024/01/30 05:50:29;;;;;;;20.25;13.35;;;7.30;99.90;;;;;;5013591;28;20057;-76
2024/01/30 05:52:55;;;;;;;19.75;13.23;;;7.30;99.90;;;;;;5002742;28;20519;-76
2024/01/30 05:55:20;;;;;;;20.27;13.02;;;7.40;99.90;;;;;;5006233;28;20045;-76
2024/01/30 05:57:46;;;;;;;21.17;13.98;;;7.40;99.90;;;;;;5012833;28;20040;-76
2024/01/30 06:00:12;;;;;;;20.27;13.05;;;7.40;99.90;;;;;;5010701;28;20037;-76
2024/01/30 06:02:38;;;;;;;24.17;13.35;;;7.40;99.90;;;;;;5005326;28;20041;-77
2024/01/30 06:05:04;;;;;;;22.77;13.98;;;7.40;99.90;;;;;;5005018;28;20038;-76
2024/01/30 06:07:29;;;;;;;20.10;13.43;;;7.40;99.90;;;;;;5009502;28;20041;-76
2024/01/30 06:09:55;;;;;;;19.05;12.50;;;7.40;99.90;;;;;;5012002;28;20326;-76
2024/01/30 06:12:20;;;;;;;20.17;13.02;;;7.40;99.90;;;;;;5002525;28;20186;-76
2024/01/30 06:14:46;;;;;;;22.67;13.23;;;7.40;99.90;;;;;;5005736;28;20502;-76
2024/01/30 06:17:12;;;;;;;21.92;13.02;;;7.40;99.90;;;;;;5004880;28;20117;-76
2024/01/30 06:19:39;;;;;;;22.90;13.63;;;7.40;99.90;;;;;;5003691;28;20034;-78
2024/01/30 06:22:04;;;;;;;22.25;14.07;;;7.40;99.90;;;;;;5011859;28;20046;-76
2024/01/30 06:24:30;;;;;;;22.48;13.38;;;7.40;99.90;;;;;;5012491;28;20041;-75
2024/01/30 06:26:56;;;;;;;22.02;14.35;;;7.40;99.90;;;;;;5007359;28;20038;-76
2024/01/30 06:29:21;;;;;;;26.50;13.40;;;7.40;99.90;;;;;;5008506;28;20076;-75
2024/01/30 06:31:47;;;;;;;23.27;13.48;;;7.30;99.90;;;;;;5007280;28;20038;-76
2024/01/30 06:34:13;;;;;;;19.90;13.27;;;7.40;99.90;;;;;;4984106;28;20073;-75
2024/01/30 06:36:38;;;;;;;20.73;13.40;;;7.40;99.90;;;;;;5002006;28;20073;-76
2024/01/30 06:39:04;;;;;;;18.67;13.07;;;7.40;99.90;;;;;;5012092;28;20042;-75
2024/01/30 06:41:30;;;;;;;19.60;13.55;;;7.40;99.90;;;;;;5006638;28;20080;-75
2024/01/30 06:43:56;;;;;;;22.33;13.57;;;7.40;99.90;;;;;;5000107;28;20069;-75
2024/01/30 06:46:22;;;;;;;22.75;13.50;;;7.40;99.90;;;;;;5005066;28;20368;-75
2024/01/30 06:48:47;;;;;;;20.45;13.50;;;7.40;99.90;;;;;;5004703;28;20175;-75
2024/01/30 06:51:13;;;;;;;19.13;13.30;;;7.50;99.90;;;;;;5007540;28;20057;-73
2024/01/30 06:53:38;;;;;;;22.52;13.80;;;7.40;99.90;;;;;;5003323;28;20523;-75
2024/01/30 06:56:05;;;;;;;21.05;13.30;;;7.50;99.90;;;;;;5009110;28;20034;-75
2024/01/30 06:58:30;;;;;;;22.25;14.25;;;7.50;99.90;;;;;;5007730;28;20459;-75
2024/01/30 07:00:56;;;;;;;20.75;13.35;;;7.50;99.90;;;;;;5000994;28;20120;-75
2024/01/30 07:03:22;;;;;;;20.95;13.70;;;7.40;99.90;;;;;;5003689;28;20061;-75
2024/01/30 07:05:48;;;;;;;23.10;13.25;;;7.50;99.90;;;;;;5002597;28;20065;-75
2024/01/30 07:08:17;;;;;;;21.15;13.30;;;7.40;99.90;;;;;;5006350;28;20395;-75
2024/01/30 07:10:43;;;;;;;23.40;14.07;;;7.50;99.90;;;;;;5005191;28;20510;-76
2024/01/30 07:13:10;;;;;;;21.88;13.63;;;7.50;99.90;;;;;;5005515;28;20503;-76
2024/01/30 07:15:36;;;;;;;21.15;13.25;;;7.50;99.90;;;;;;5008480;28;20057;-78
2024/01/30 07:18:02;;;;;;;20.15;13.63;;;7.50;99.90;;;;;;5007199;28;20042;-77
2024/01/30 07:20:30;;;;;;;22.13;12.57;;;7.60;99.90;;;;;;5003109;28;20034;-77
2024/01/30 07:22:56;;;;;;;21.02;13.85;;;7.50;99.90;;;;;;5010387;28;20054;-79
2024/01/30 07:25:26;;;;;;;20.92;13.63;;;7.50;99.90;;;;;;5011293;28;20048;-78
2024/01/30 07:27:55;;;;;;;20.92;13.68;;;7.50;99.90;;;;;;5010776;28;20088;-80
2024/01/30 07:30:21;;;;;;;21.10;12.73;;;7.50;99.90;;;;;;5009579;28;20041;-78
2024/01/30 07:32:47;;;;;;;20.35;13.90;;;7.60;99.90;;;;;;5011491;28;20108;-76
2024/01/30 07:35:13;;;;;;;25.05;13.55;;;7.60;99.90;;;;;;5006704;28;20550;-76
2024/01/30 07:37:39;;;;;;;22.05;13.15;;;7.60;99.90;;;;;;5006535;28;20045;-75
2024/01/30 07:40:06;;;;;;;20.70;13.50;;;7.60;99.90;;;;;;5008868;28;20042;-76
2024/01/30 07:42:32;;;;;;;22.15;13.50;;;7.60;99.90;;;;;;5004498;28;20093;-76
2024/01/30 07:44:57;;;;;;;22.10;13.60;;;7.70;99.90;;;;;;5003090;28;20046;-77
2024/01/30 07:47:23;;;;;;;20.08;13.20;;;7.60;99.90;;;;;;5002537;28;20042;-76
2024/01/30 07:49:49;;;;;;;20.63;12.68;;;7.60;99.90;;;;;;4997256;28;20080;-76
2024/01/30 07:52:14;;;;;;;22.02;13.27;;;7.70;99.90;;;;;;5006088;28;20129;-76
2024/01/30 07:54:40;;;;;;;19.88;13.07;;;7.70;99.90;;;;;;5000787;28;20042;-76
2024/01/30 07:57:05;;;;;;;17.75;12.15;;;7.70;99.90;;;;;;5009527;28;20081;-76
2024/01/30 07:59:31;;;;;;;18.85;13.02;;;7.70;99.90;;;;;;5001370;28;20030;-75
2024/01/30 08:01:56;;;;;;;19.80;12.57;;;7.70;99.90;;;;;;5006681;28;20026;-76
2024/01/30 08:04:22;;;;;;;20.00;13.05;;;7.80;99.90;;;;;;5004205;28;20042;-77
2024/01/30 08:06:48;;;;;;;17.23;12.20;;;7.80;99.90;;;;;;5002024;28;20079;-76
2024/01/30 08:09:14;;;;;;;19.52;12.60;;;7.80;99.90;;;;;;5003053;28;20044;-75
2024/01/30 08:11:40;;;;;;;20.83;12.77;;;7.80;99.90;;;;;;4989641;28;20479;-76
2024/01/30 08:14:05;;;;;;;18.48;12.30;;;7.80;99.90;;;;;;5011362;28;20116;-75
2024/01/30 08:16:31;;;;;;;19.08;12.57;;;7.80;99.90;;;;;;5010396;28;20033;-76
2024/01/30 08:18:57;;;;;;;25.35;13.15;;;7.90;99.90;;;;;;5000715;28;20387;-73
2024/01/30 08:21:23;;;;;;;21.65;12.52;;;7.90;99.90;;;;;;5005977;28;20070;-76
2024/01/30 08:23:48;;;;;;;22.20;12.98;;;7.90;99.90;;;;;;5005760;28;20069;-76
2024/01/30 08:26:14;;;;;;;19.08;12.38;;;7.90;99.90;;;;;;5011296;28;20041;-77
2024/01/30 08:28:40;;;;;;;20.15;13.00;;;7.90;99.90;;;;;;5012214;28;20029;-75
2024/01/30 08:31:05;;;;;;;19.50;12.57;;;7.90;99.90;;;;;;5008941;28;20072;-76
2024/01/30 08:33:31;;;;;;;18.80;12.30;;;8.00;99.90;;;;;;5006330;28;20050;-77
2024/01/30 08:35:57;;;;;;;18.77;11.77;;;8.00;99.90;;;;;;5011669;28;20034;-80
2024/01/30 08:38:22;;;;;;;21.25;12.63;;;8.10;99.90;;;;;;5006746;28;20049;-76
2024/01/30 08:40:49;;;;;;;20.95;12.50;;;8.10;99.90;;;;;;5011988;28;20088;-75
2024/01/30 08:43:15;;;;;;;18.10;11.98;;;8.10;99.90;;;;;;5004159;28;20066;-76
2024/01/30 08:45:41;;;;;;;19.67;12.48;;;8.10;99.90;;;;;;5005471;28;20108;-76
2024/01/30 08:48:07;;;;;;;19.25;11.55;;;8.20;99.90;;;;;;5010301;28;20042;-76
2024/01/30 08:50:33;;;;;;;22.35;12.18;;;8.20;99.90;;;;;;5011798;28;20503;-76
2024/01/30 08:52:58;;;;;;;20.77;11.82;;;8.20;99.90;;;;;;5010128;28;20034;-76
2024/01/30 08:55:24;;;;;;;18.30;12.18;;;8.20;99.90;;;;;;5010422;28;20120;-75
2024/01/30 08:57:49;;;;;;;19.48;12.27;;;8.30;99.90;;;;;;5014124;28;20069;-76
2024/01/30 09:00:16;;;;;;;17.92;11.07;;;8.30;99.90;;;;;;5005730;28;20034;-76
2024/01/30 09:02:41;;;;;;;21.60;11.40;;;8.30;99.90;;;;;;5011731;28;20057;-76
2024/01/30 09:05:07;;;;;;;17.70;11.38;;;8.30;99.90;;;;;;5008266;28;20030;-75
2024/01/30 09:07:33;;;;;;;20.27;11.57;;;8.40;99.90;;;;;;5010441;28;20052;-76
2024/01/30 09:09:58;;;;;;;20.83;12.40;;;8.40;99.90;;;;;;5013804;28;20049;-76
2024/01/30 09:12:24;;;;;;;20.95;11.30;;;8.40;99.90;;;;;;5011866;28;20050;-75
2024/01/30 09:14:50;;;;;;;16.60;11.20;;;8.50;99.90;;;;;;5010282;28;20046;-76
2024/01/30 09:17:15;;;;;;;19.17;11.48;;;8.50;99.90;;;;;;5014177;28;20557;-75
2024/01/30 09:19:41;;;;;;;20.25;11.45;;;8.60;99.90;;;;;;5012033;28;20038;-77
2024/01/30 09:22:06;;;;;;;20.17;12.68;;;8.70;99.90;;;;;;5009476;28;20050;-78
2024/01/30 09:24:32;;;;;;;15.65;10.73;;;8.80;99.90;;;;;;5009090;28;20384;-79
2024/01/30 09:26:57;;;;;;;20.92;11.20;;;8.80;99.90;;;;;;5005016;28;20034;-76
2024/01/30 09:29:23;;;;;;;17.02;11.05;;;8.80;99.90;;;;;;5008922;28;20511;-76
2024/01/30 09:31:49;;;;;;;19.20;11.68;;;8.90;99.90;;;;;;5003986;28;20062;-76
2024/01/30 09:34:14;;;;;;;19.10;11.60;;;8.90;99.90;;;;;;5006968;28;20569;-77
2024/01/30 09:36:40;;;;;;;17.25;11.00;;;9.00;99.90;;;;;;5004873;28;20042;-74
2024/01/30 09:39:06;;;;;;;20.15;11.50;;;9.00;99.90;;;;;;5011814;28;20046;-77
2024/01/30 09:41:45;;;;;;;19.05;11.48;;;9.10;99.90;;;;;;5004265;28;20056;-77
2024/01/30 09:44:12;;;;;;;20.40;11.38;;;9.10;99.90;;;;;;5005065;28;20034;-76
2024/01/30 09:46:38;;;;;;;21.42;11.90;;;9.10;99.90;;;;;;5012510;28;20034;-76
2024/01/30 09:49:06;;;;;;;18.90;10.98;;;9.20;99.90;;;;;;5008080;28;20412;-76
2024/01/30 09:51:32;;;;;;;18.35;10.75;;;9.20;99.90;;;;;;5009539;28;20394;-76
2024/01/30 09:53:57;;;;;;;19.40;11.43;;;9.30;99.90;;;;;;5012254;28;20129;-76
2024/01/30 09:56:23;;;;;;;20.45;11.18;;;9.30;99.90;;;;;;5009500;28;20045;-76
2024/01/30 09:58:48;;;;;;;21.63;11.05;;;9.30;99.90;;;;;;5001285;28;20038;-76
2024/01/30 10:01:18;;;;;;;17.90;11.32;;;9.30;99.90;;;;;;5000516;28;20038;-76
2024/01/30 10:03:44;;;;;;;20.08;11.68;;;9.40;99.90;;;;;;5004742;28;20045;-76
2024/01/30 10:06:10;;;;;;;17.20;11.10;;;9.40;99.90;;;;;;5017793;28;20034;-77
2024/01/30 10:08:36;;;;;;;17.40;10.88;;;9.40;99.90;;;;;;5012168;28;20069;-77
2024/01/30 10:11:03;;;;;;;19.58;10.73;;;9.40;99.90;;;;;;5007217;28;20069;-77
2024/01/30 10:13:29;;;;;;;19.70;11.10;;;9.40;99.90;;;;;;5001913;28;20057;-77
2024/01/30 10:15:55;;;;;;;17.27;10.80;;;9.40;99.90;;;;;;5012646;28;20046;-74
2024/01/30 10:18:22;;;;;;;18.10;11.75;;;9.50;99.90;;;;;;5012676;28;20034;-76
2024/01/30 10:20:48;;;;;;;20.30;10.98;;;9.50;99.90;;;;;;5012968;28;20041;-76
2024/01/30 10:23:13;;;;;;;21.63;11.80;;;9.50;99.90;;;;;;5003672;28;20415;-77
2024/01/30 10:25:39;;;;;;;18.70;11.18;;;9.60;99.90;;;;;;5010434;28;20037;-75
2024/01/30 10:28:05;;;;;;;20.60;11.75;;;9.60;99.90;;;;;;5012063;28;20575;-76
2024/01/30 10:30:30;;;;;;;22.10;11.70;;;9.60;99.90;;;;;;5011802;28;20041;-76
2024/01/30 10:32:56;;;;;;;22.92;11.43;;;9.70;99.90;;;;;;5011442;28;20048;-76
2024/01/30 10:35:21;;;;;;;20.67;11.77;;;9.70;99.90;;;;;;5011763;28;20045;-75
2024/01/30 10:37:48;;;;;;;20.60;11.18;;;9.80;99.90;;;;;;5011697;28;20057;-76
2024/01/30 10:40:18;;;;;;;31.05;11.43;;;9.80;99.90;;;;;;5008797;28;20041;-75
2024/01/30 10:42:47;;;;;;;23.13;11.27;;;9.80;99.90;;;;;;5011456;28;20038;-77
2024/01/30 10:45:13;;;;;;;20.85;11.57;;;9.90;99.90;;;;;;5009399;28;20042;-75
2024/01/30 10:47:59;;;;;;;19.33;11.05;;;9.90;99.90;;;;;;5009911;28;20038;-77
2024/01/30 10:50:26;;;;;;;18.90;11.65;;;10.00;99.90;;;;;;5007049;28;20054;-77
2024/01/30 10:52:53;;;;;;;17.42;11.25;;;9.90;99.90;;;;;;5004309;28;20050;-76
2024/01/30 10:55:21;;;;;;;20.75;11.95;;;10.00;99.90;;;;;;5011977;28;20077;-77
2024/01/30 10:57:47;;;;;;;19.83;11.20;;;10.00;99.90;;;;;;5004645;28;20045;-76
2024/01/30 11:00:16;;;;;;;19.45;11.70;;;10.00;99.90;;;;;;5007602;28;20054;-78
2024/01/30 11:02:44;;;;;;;18.00;11.30;;;10.00;99.90;;;;;;5009062;28;20050;-78
2024/01/30 11:05:10;;;;;;;21.88;12.02;;;10.10;99.90;;;;;;5007704;28;20049;-77
2024/01/30 11:07:38;;;;;;;21.15;12.05;;;10.10;99.90;;;;;;5009238;28;20054;-77
2024/01/30 11:10:05;;;;;;;20.83;12.13;;;10.10;99.90;;;;;;5008621;28;20056;-77
2024/01/30 11:12:40;;;;;;;22.90;11.88;;;10.20;99.90;;;;;;5010912;28;20046;-74
2024/01/30 11:15:11;;;;;;;20.20;13.20;;;10.20;99.90;;;;;;5011953;28;20050;-77
2024/01/30 11:17:47;;;;;;;21.02;12.45;;;10.30;99.90;;;;;;5010719;28;20079;-77
2024/01/30 11:20:18;;;;;;;19.75;13.45;;;10.40;99.90;;;;;;5009056;28;20099;-75
2024/01/30 11:22:49;;;;;;;21.35;12.98;;;10.40;99.90;;;;;;5010485;28;20085;-77
2024/01/30 11:25:16;;;;;;;21.02;12.98;;;10.50;99.90;;;;;;5005465;28;20038;-77
2024/01/30 11:27:45;;;;;;;20.73;12.50;;;10.50;99.90;;;;;;5010906;28;20117;-76
2024/01/30 11:30:25;;;;;;;21.52;13.20;;;10.60;99.90;;;;;;5011884;28;20034;-76
2024/01/30 11:33:12;;;;;;;19.33;12.70;;;10.60;99.90;;;;;;5004114;28;20046;-76
2024/01/30 11:35:39;;;;;;;23.38;12.45;;;10.60;99.90;;;;;;5010441;28;20409;-77
2024/01/30 11:38:06;;;;;;;19.73;12.73;;;10.60;99.90;;;;;;5002237;28;20042;-76
2024/01/30 11:40:33;;;;;;;24.17;12.70;;;10.60;99.90;;;;;;5006963;28;20041;-76
2024/01/30 11:43:00;;;;;;;18.85;12.65;;;10.70;99.90;;;;;;4992470;28;20080;-76
2024/01/30 11:45:29;;;;;;;22.50;12.25;;;10.70;99.90;;;;;;4993897;28;20048;-77
2024/01/30 11:47:55;;;;;;;22.17;12.15;;;10.80;99.90;;;;;;5006160;28;20529;-77
2024/01/30 11:50:21;;;;;;;20.88;11.52;;;10.80;99.90;;;;;;4997284;28;20040;-76
2024/01/30 11:52:48;;;;;;;18.45;12.25;;;10.80;99.90;;;;;;5009518;28;20465;-76
2024/01/30 11:55:14;;;;;;;18.20;11.10;;;10.90;99.90;;;;;;5012277;28;20077;-75
2024/01/30 11:57:40;;;;;;;18.75;11.20;;;10.90;99.90;;;;;;5006248;28;20069;-76
2024/01/30 12:00:13;;;;;;;19.38;11.48;;;11.00;99.90;;;;;;5002881;28;20066;-76
2024/01/30 12:02:40;;;;;;;20.30;11.68;;;11.00;99.90;;;;;;5001056;28;20038;-76
2024/01/30 12:05:06;;;;;;;17.50;10.90;;;11.00;99.90;;;;;;5007807;28;20046;-76
2024/01/30 12:07:32;;;;;;;17.55;10.60;;;11.10;99.90;;;;;;5008347;28;20034;-76
2024/01/30 12:09:58;;;;;;;18.33;11.45;;;11.10;99.90;;;;;;5002537;28;20045;-76
2024/01/30 12:12:28;;;;;;;17.00;11.13;;;11.10;99.90;;;;;;5010351;28;20045;-74
2024/01/30 12:14:54;;;;;;;16.98;10.88;;;11.00;99.90;;;;;;5008147;28;20050;-77
2024/01/30 12:17:32;;;;;;;16.38;9.98;;;11.00;99.90;;;;;;5006564;28;20109;-76
2024/01/30 12:20:07;;;;;;;18.83;10.60;;;11.00;99.90;;;;;;5010491;28;20104;-76
2024/01/30 12:22:47;;;;;;;17.60;9.13;;;11.00;99.90;;;;;;5010656;28;20551;-76
2024/01/30 12:25:14;;;;;;;18.88;9.30;;;10.90;99.90;;;;;;5004962;28;20037;-74
2024/01/30 12:27:43;;;;;;;16.15;8.57;;;10.80;99.90;;;;;;5009795;28;20042;-76
2024/01/30 12:30:10;;;;;;;16.95;8.70;;;10.80;99.90;;;;;;5011382;28;20038;-76